Sparta, Virginia
Current Conditions -  °F | °C
As of 5:15 PM on Sunday 25 Jan 2015 (Local Time) from KXSA Reporting Station
Clear Clear  
Wind Chill: 50°   Ceiling: Unl
Heat Index: 50°   Visibility: 10mi
Dew Point: 27°   Wind: 3mph
Humidity: 41%   Direction: 130°SE
Pressure: 29.84"   Gusts: NA
Location:  37.99°N, 77.23°W
Report Text: KXSA 252215Z AUTO 13003KT 10SM CLR 10/M03 A2984 RMK AO2 T01001027
Loading
Personal Weather Stations






























Interactive Weather Map New forecast layout! Learn more

10-Day Weather Forecast

Advertisements
Track Severe Weather on mobile